Portada
METAR-TAF:

METAR-TAF

Aeroports :

San José del Cabo, Mèxic

latitud: 23-09N, longitud: 109-42W, altitud: 109 m

Observació

L'informe es va fer fa 9 hores i 17 minuts, a les 03:59 UTC
Vent 3 kt del Oest/Sud-Oest
Temperatura 27°C
Humitat 79%
Pressió 1009 hPa
Visibilitat: 19.3 km
Escasses núvols a una alçada de 3000 ft

METAR: MMSD 170359Z RTD 25003KT 12SM FEW030 27/23 A2980 RMK 8/500

Hora: 07:16 (13:16 UTC)

Pronòstic

L'informe es va fer fa 8 hores i 11 minuts, a les 05:05 UTC
Pronòstic vàlid del 17 a les 06 UTC al 18 a les 06 UTC
Vent 4 kt del Oest/Sud-Oest
Visibilitat: 10 km
Núvols disperses a una alçada de 3000 ft
A partir de les 17 a les 1800 UTC
Vent 10 kt del Est/Sud-Est
Visibilitat: 10 km
Núvols disperses a una alçada de 2500 ft
Núvols disperses a una alçada de 8000 ft
Evolucionant progressivament
l' 18 a les 03 UTC al 18 a les 05 UTC
Vent 5 kt del Oest

TAF: MMSD 170505Z 1706/1806 25004KT P6SM SCT030 FM171800 12010KT P6SM SCT025 SCT080 BECMG 1803/1805 26005KT

Observacions i pronòstics meteorològics de més de 4000 aeroports (METAR i TAF).

Les estacions disponibles són els punts grocs i vermells al mapa.

Posi el ratolí al punt desitjat per veure el nom de l'estació.

Feu clic per veure les observacions i els pronòstics meteorològics.

Per canviar el mapa: feu clic els botons verds amb una creu de color negre per apropar; al botó verd amb un guió per allunyar la imatge; o en les fletxes verdes per a mapes adjacents.


METAR-TAF: